EJU62 LEBL-LPPT
Flight info
| Callsign | EJU62 |
|---|---|
| Flight time | N/A |
| Altitude | 37000 |
| Route | SENIA DCT DORMI DCT CRETA DCT NEXAS DCT DISVU DCT ADUXO N975 PALIO DCT AKOKI DCT GOTOR DCT TLD DCT NATPA DCT MELON DCT CCS DCT ELVAR DCT UPULO |
| Aircraft | A320/M-SDE3FGHIRWY/LB1 |
Departure
| Time | 2026-05-05 11:15 |
|---|---|
| Airport | Josep Tarradellas Barcelona-El Prat Airport (LEBL) |
Arrival
| Time | N/A |
|---|---|
| Airport | Lisbon Humberto Delgado Airport (LPPT) |
| Time | Latitude | Longitude | Altitude | Speed | Heading |
|---|---|---|---|---|---|
| 2026-05-05 10:46 | 41.29646 | 2.06407 | 19 ft | 0 kts | 66° |
| 2026-05-05 10:58 | 41.29637 | 2.06406 | 18 ft | 0 kts | 66° |
| 2026-05-05 11:04 | 41.29645 | 2.06431 | 19 ft | 9 kts | 67° |
| 2026-05-05 11:05 | 41.29620 | 2.06506 | 17 ft | 10 kts | 149° |
| 2026-05-05 11:05 | 41.29603 | 2.06582 | 16 ft | 9 kts | 78° |
| 2026-05-05 11:05 | 41.29626 | 2.06658 | 16 ft | 8 kts | 66° |
| 2026-05-05 11:05 | 41.29648 | 2.06725 | 16 ft | 7 kts | 65° |
| 2026-05-05 11:06 | 41.29669 | 2.06781 | 18 ft | 6 kts | 64° |
| 2026-05-05 11:06 | 41.29685 | 2.06829 | 16 ft | 5 kts | 65° |
| 2026-05-05 11:06 | 41.29711 | 2.06905 | 16 ft | 13 kts | 65° |
| 2026-05-05 11:06 | 41.29760 | 2.07046 | 16 ft | 20 kts | 66° |
| 2026-05-05 11:07 | 41.29822 | 2.07242 | 15 ft | 24 kts | 65° |
| 2026-05-05 11:07 | 41.29892 | 2.07452 | 15 ft | 25 kts | 66° |
| 2026-05-05 11:07 | 41.29967 | 2.07669 | 16 ft | 26 kts | 66° |
| 2026-05-05 11:07 | 41.30043 | 2.07891 | 17 ft | 27 kts | 65° |
| 2026-05-05 11:08 | 41.30116 | 2.08105 | 18 ft | 22 kts | 65° |
| 2026-05-05 11:08 | 41.30111 | 2.08224 | 18 ft | 14 kts | 147° |
| 2026-05-05 11:08 | 41.30035 | 2.08267 | 18 ft | 1 kts | 156° |
| 2026-05-05 11:08 | 41.30030 | 2.08270 | 18 ft | 0 kts | 156° |
| 2026-05-05 11:09 | 41.30029 | 2.08270 | 18 ft | 0 kts | 156° |
| 2026-05-05 11:09 | 41.30020 | 2.08276 | 18 ft | 4 kts | 156° |
| 2026-05-05 11:09 | 41.30014 | 2.08279 | 18 ft | 5 kts | 156° |
| 2026-05-05 11:09 | 41.29959 | 2.08312 | 21 ft | 13 kts | 154° |
| 2026-05-05 11:10 | 41.29845 | 2.08382 | 24 ft | 24 kts | 155° |
| 2026-05-05 11:10 | 41.29662 | 2.08493 | 16 ft | 30 kts | 155° |
| 2026-05-05 11:10 | 41.29474 | 2.08604 | 15 ft | 31 kts | 156° |
| 2026-05-05 11:10 | 41.29366 | 2.08671 | 17 ft | 4 kts | 154° |
| 2026-05-05 11:11 | 41.29350 | 2.08682 | 17 ft | 1 kts | 155° |
| 2026-05-05 11:11 | 41.29322 | 2.08699 | 17 ft | 15 kts | 155° |
| 2026-05-05 11:11 | 41.29201 | 2.08770 | 16 ft | 21 kts | 156° |
| 2026-05-05 11:11 | 41.29064 | 2.08852 | 16 ft | 23 kts | 155° |
| 2026-05-05 11:12 | 41.28952 | 2.08939 | 16 ft | 16 kts | 118° |
| 2026-05-05 11:12 | 41.28982 | 2.09079 | 18 ft | 17 kts | 65° |
| 2026-05-05 11:12 | 41.29032 | 2.09227 | 19 ft | 19 kts | 66° |
| 2026-05-05 11:12 | 41.29092 | 2.09404 | 17 ft | 24 kts | 66° |
| 2026-05-05 11:13 | 41.29168 | 2.09621 | 18 ft | 28 kts | 65° |
| 2026-05-05 11:13 | 41.29251 | 2.09869 | 18 ft | 30 kts | 66° |
| 2026-05-05 11:13 | 41.29344 | 2.10096 | 16 ft | 24 kts | 65° |
| 2026-05-05 11:13 | 41.29336 | 2.10266 | 14 ft | 21 kts | 144° |
| 2026-05-05 11:14 | 41.29207 | 2.10286 | 16 ft | 18 kts | 223° |
| 2026-05-05 11:14 | 41.29195 | 2.10258 | 16 ft | 0 kts | 244° |
| 2026-05-05 11:14 | 41.29194 | 2.10256 | 16 ft | 2 kts | 244° |
| 2026-05-05 11:14 | 41.29104 | 2.09991 | 19 ft | 70 kts | 245° |
| 2026-05-05 11:15 | 41.28806 | 2.09130 | 18 ft | 132 kts | 244° |
| 2026-05-05 11:15 | 41.28345 | 2.07873 | 256 ft | 157 kts | 244° |
| 2026-05-05 11:15 | 41.27831 | 2.06655 | 1024 ft | 150 kts | 223° |
| 2026-05-05 11:15 | 41.26875 | 2.06092 | 1621 ft | 162 kts | 186° |
| 2026-05-05 11:16 | 41.25670 | 2.06032 | 1984 ft | 184 kts | 183° |
| 2026-05-05 11:16 | 41.24309 | 2.05977 | 2312 ft | 209 kts | 183° |
| 2026-05-05 11:16 | 41.22819 | 2.05912 | 3020 ft | 216 kts | 184° |
| 2026-05-05 11:16 | 41.21341 | 2.05845 | 3913 ft | 216 kts | 184° |
| 2026-05-05 11:17 | 41.19836 | 2.05778 | 4797 ft | 217 kts | 184° |
| 2026-05-05 11:17 | 41.18325 | 2.05705 | 5642 ft | 218 kts | 186° |
| 2026-05-05 11:17 | 41.16852 | 2.05197 | 6352 ft | 226 kts | 207° |
| 2026-05-05 11:17 | 41.15422 | 2.04232 | 7016 ft | 234 kts | 208° |
| 2026-05-05 11:18 | 41.13972 | 2.03234 | 7885 ft | 236 kts | 209° |
| 2026-05-05 11:18 | 41.12517 | 2.02231 | 8797 ft | 237 kts | 209° |
| 2026-05-05 11:18 | 41.11047 | 2.01221 | 9706 ft | 238 kts | 209° |
| 2026-05-05 11:18 | 41.09589 | 2.00223 | 10557 ft | 240 kts | 209° |
| 2026-05-05 11:19 | 41.08162 | 1.99064 | 11411 ft | 242 kts | 221° |
| 2026-05-05 11:19 | 41.07069 | 1.97361 | 12187 ft | 250 kts | 238° |
| 2026-05-05 11:19 | 41.06408 | 1.95112 | 12520 ft | 276 kts | 252° |
| 2026-05-05 11:19 | 41.05890 | 1.92552 | 12802 ft | 299 kts | 252° |
| 2026-05-05 11:20 | 41.05361 | 1.89778 | 13079 ft | 322 kts | 257° |
| 2026-05-05 11:20 | 41.05280 | 1.86748 | 13635 ft | 335 kts | 268° |
| 2026-05-05 11:20 | 41.05328 | 1.83651 | 14295 ft | 338 kts | 267° |
| 2026-05-05 11:20 | 41.05362 | 1.80566 | 15027 ft | 339 kts | 267° |
| 2026-05-05 11:21 | 41.05388 | 1.77448 | 15782 ft | 339 kts | 266° |
| 2026-05-05 11:21 | 41.05408 | 1.74319 | 16534 ft | 340 kts | 266° |
| 2026-05-05 11:21 | 41.05391 | 1.71188 | 17284 ft | 339 kts | 264° |
| 2026-05-05 11:21 | 41.05251 | 1.68066 | 18030 ft | 339 kts | 262° |
| 2026-05-05 11:22 | 41.05065 | 1.64955 | 18683 ft | 340 kts | 262° |
| 2026-05-05 11:22 | 41.04857 | 1.61829 | 19280 ft | 341 kts | 261° |
| 2026-05-05 11:22 | 41.04641 | 1.58694 | 19869 ft | 342 kts | 261° |
| 2026-05-05 11:22 | 41.04429 | 1.55552 | 20452 ft | 344 kts | 261° |
| 2026-05-05 11:23 | 41.04221 | 1.52429 | 21052 ft | 345 kts | 261° |
| 2026-05-05 11:23 | 41.04015 | 1.49257 | 21628 ft | 347 kts | 261° |
| 2026-05-05 11:23 | 41.03809 | 1.46067 | 22183 ft | 348 kts | 261° |
| 2026-05-05 11:23 | 41.03602 | 1.42861 | 22722 ft | 350 kts | 261° |
| 2026-05-05 11:24 | 41.03396 | 1.39635 | 23250 ft | 352 kts | 261° |
| 2026-05-05 11:24 | 41.03189 | 1.36389 | 23731 ft | 354 kts | 261° |
| 2026-05-05 11:24 | 41.02980 | 1.33135 | 24167 ft | 356 kts | 261° |
| 2026-05-05 11:24 | 41.02768 | 1.29867 | 24601 ft | 357 kts | 261° |
| 2026-05-05 11:25 | 41.02551 | 1.26579 | 25028 ft | 359 kts | 261° |
| 2026-05-05 11:25 | 41.02336 | 1.23328 | 25438 ft | 360 kts | 260° |
| 2026-05-05 11:25 | 41.02114 | 1.20013 | 25851 ft | 362 kts | 260° |
| 2026-05-05 11:25 | 41.01888 | 1.16691 | 26261 ft | 363 kts | 260° |
| 2026-05-05 11:26 | 41.01663 | 1.13356 | 26682 ft | 365 kts | 260° |
| 2026-05-05 11:26 | 41.01437 | 1.09993 | 27058 ft | 367 kts | 260° |
| 2026-05-05 11:26 | 41.01210 | 1.06621 | 27443 ft | 369 kts | 260° |
| 2026-05-05 11:26 | 41.00980 | 1.03230 | 27832 ft | 371 kts | 260° |
| 2026-05-05 11:27 | 41.00748 | 0.99819 | 28216 ft | 373 kts | 260° |
| 2026-05-05 11:27 | 41.00517 | 0.96433 | 28579 ft | 375 kts | 260° |
| 2026-05-05 11:27 | 41.00282 | 0.92993 | 28934 ft | 376 kts | 260° |
| 2026-05-05 11:27 | 41.00045 | 0.89531 | 29294 ft | 378 kts | 259° |
| 2026-05-05 11:28 | 40.99805 | 0.86065 | 29609 ft | 380 kts | 259° |
| 2026-05-05 11:28 | 40.99563 | 0.82579 | 29938 ft | 381 kts | 259° |
| 2026-05-05 11:28 | 40.99317 | 0.79071 | 30222 ft | 383 kts | 259° |
| 2026-05-05 11:28 | 40.99065 | 0.75549 | 30533 ft | 385 kts | 259° |
| 2026-05-05 11:29 | 40.98812 | 0.72011 | 30815 ft | 387 kts | 259° |
| 2026-05-05 11:29 | 40.98560 | 0.68476 | 31181 ft | 386 kts | 259° |
| 2026-05-05 11:29 | 40.98314 | 0.64987 | 31540 ft | 385 kts | 259° |
| 2026-05-05 11:29 | 40.98063 | 0.61456 | 31868 ft | 385 kts | 259° |
| 2026-05-05 11:30 | 40.97814 | 0.57928 | 32176 ft | 386 kts | 259° |
| 2026-05-05 11:30 | 40.97562 | 0.54389 | 32514 ft | 385 kts | 259° |
| 2026-05-05 11:30 | 40.97307 | 0.50863 | 32855 ft | 385 kts | 259° |
| 2026-05-05 11:30 | 40.97049 | 0.47330 | 33184 ft | 385 kts | 259° |
| 2026-05-05 11:31 | 40.96787 | 0.43800 | 33522 ft | 385 kts | 259° |
| 2026-05-05 11:31 | 40.96526 | 0.40271 | 33833 ft | 385 kts | 259° |
| 2026-05-05 11:31 | 40.96264 | 0.36742 | 34156 ft | 385 kts | 259° |
| 2026-05-05 11:31 | 40.96004 | 0.33225 | 34442 ft | 385 kts | 260° |
| 2026-05-05 11:32 | 40.95742 | 0.29696 | 34697 ft | 385 kts | 260° |
| 2026-05-05 11:32 | 40.95480 | 0.26173 | 34947 ft | 386 kts | 260° |
| 2026-05-05 11:32 | 40.95213 | 0.22640 | 35180 ft | 386 kts | 260° |
| 2026-05-05 11:32 | 40.94946 | 0.19106 | 35426 ft | 387 kts | 260° |
| 2026-05-05 11:33 | 40.94677 | 0.15550 | 35654 ft | 388 kts | 260° |
| 2026-05-05 11:33 | 40.94411 | 0.12005 | 35887 ft | 388 kts | 261° |
| 2026-05-05 11:33 | 40.94143 | 0.08441 | 36120 ft | 389 kts | 261° |
| 2026-05-05 11:33 | 40.93876 | 0.04931 | 36329 ft | 389 kts | 261° |
| 2026-05-05 11:34 | 40.93603 | 0.01368 | 36543 ft | 390 kts | 261° |
| 2026-05-05 11:34 | 40.93329 | -0.02205 | 36782 ft | 391 kts | 261° |
| 2026-05-05 11:34 | 40.93052 | -0.05791 | 36931 ft | 392 kts | 261° |
| 2026-05-05 11:35 | 40.92492 | -0.12969 | 36963 ft | 392 kts | 261° |
| 2026-05-05 11:35 | 40.91922 | -0.20150 | 36965 ft | 392 kts | 261° |
| 2026-05-05 11:36 | 40.91352 | -0.27326 | 36962 ft | 392 kts | 261° |
| 2026-05-05 11:36 | 40.90784 | -0.34499 | 36950 ft | 391 kts | 261° |
| 2026-05-05 11:37 | 40.90216 | -0.41644 | 36943 ft | 390 kts | 261° |
| 2026-05-05 11:37 | 40.89640 | -0.48725 | 36948 ft | 390 kts | 261° |
| 2026-05-05 11:38 | 40.89055 | -0.55849 | 36951 ft | 390 kts | 261° |
| 2026-05-05 11:38 | 40.88473 | -0.62965 | 36951 ft | 390 kts | 261° |
| 2026-05-05 11:39 | 40.87880 | -0.70091 | 36951 ft | 389 kts | 261° |
| 2026-05-05 11:39 | 40.87278 | -0.77197 | 36996 ft | 389 kts | 260° |
| 2026-05-05 11:40 | 40.86125 | -0.82888 | 36988 ft | 386 kts | 249° |
| 2026-05-05 11:40 | 40.84280 | -0.89548 | 36977 ft | 386 kts | 249° |
| 2026-05-05 11:41 | 40.82430 | -0.96209 | 36974 ft | 386 kts | 249° |
| 2026-05-05 11:41 | 40.80580 | -1.02867 | 36970 ft | 386 kts | 249° |
| 2026-05-05 11:42 | 40.78730 | -1.09534 | 36977 ft | 386 kts | 249° |
| 2026-05-05 11:42 | 40.78119 | -1.11734 | 36977 ft | 386 kts | 249° |